Time;durP1;ratioP1;P1;durP2;ratioP2;P2;SDS_P1;SDS_P2;PMS_P1;PMS_P2;Temp;Humidity;BMP_temperature;BMP_pressure;BME280_temperature;BME280_humidity;BME280_pressure;Samples;Min_cycle;Max_cycle;Signal;HPM_P1;HPM_P2
2023/05/04 00:00:40;;;;;;;15.23;7.60;;;;;;;;;;4989418;28;25045;-75
2023/05/04 00:03:06;;;;;;;14.30;7.57;;;;;;;;;;4991645;28;25169;-73
2023/05/04 00:05:32;;;;;;;15.48;8.30;;;;;;;;;;4997606;28;25047;-76
2023/05/04 00:07:58;;;;;;;18.40;8.40;;;;;;;;;;4991226;28;25072;-73
2023/05/04 00:10:25;;;;;;;14.18;7.97;;;;;;;;;;4994449;28;25164;-74
2023/05/04 00:12:51;;;;;;;11.82;8.05;;;;;;;;;;4991360;28;25078;-75
2023/05/04 00:15:18;;;;;;;18.42;9.07;;;;;;;;;;4990316;28;25068;-76
2023/05/04 00:17:46;;;;;;;14.60;7.97;;;;;;;;;;4996136;28;25078;-74
2023/05/04 00:22:56;;;;;;;16.90;8.27;;;;;;;;;;4985981;23;25111;-60
2023/05/04 00:25:22;;;;;;;16.45;8.77;;;;;;;;;;4978004;28;25143;-59
2023/05/04 00:27:48;;;;;;;13.75;7.70;;;;;;;;;;4964456;28;25056;-60
2023/05/04 00:30:14;;;;;;;13.65;8.00;;;;;;;;;;4971778;28;25077;-60
2023/05/04 00:32:40;;;;;;;16.60;8.38;;;;;;;;;;4979179;28;25083;-59
2023/05/04 00:35:07;;;;;;;12.68;8.20;;;;;;;;;;4960772;28;25109;-64
2023/05/04 00:37:33;;;;;;;15.18;8.13;;;;;;;;;;5006659;23;25067;-74
2023/05/04 00:39:59;;;;;;;13.25;8.50;;;;;;;;;;4994835;28;25149;-75
2023/05/04 00:42:25;;;;;;;14.38;8.77;;;;;;;;;;4981592;28;25064;-75
2023/05/04 00:44:51;;;;;;;15.18;9.07;;;;;;;;;;4986701;28;25075;-74
2023/05/04 00:47:21;;;;;;;15.25;8.93;;;;;;;;;;4990024;28;25050;-73
2023/05/04 00:49:47;;;;;;;12.02;7.10;;;;;;;;;;4981713;28;25090;-74
2023/05/04 00:52:13;;;;;;;15.57;9.60;;;;;;;;;;4983362;28;25070;-72
2023/05/04 00:54:41;;;;;;;15.93;9.18;;;;;;;;;;4984696;28;25082;-75
2023/05/04 00:57:07;;;;;;;17.52;9.43;;;;;;;;;;4984210;28;25078;-76
2023/05/04 00:59:33;;;;;;;17.02;10.23;;;;;;;;;;4989609;28;25146;-73
2023/05/04 01:01:59;;;;;;;18.25;10.00;;;;;;;;;;4995950;28;25090;-75
2023/05/04 01:04:25;;;;;;;13.15;9.52;;;;;;;;;;4980459;28;25134;-74
2023/05/04 01:07:00;;;;;;;14.52;9.60;;;;;;;;;;4981596;28;25109;-76
2023/05/04 01:09:46;;;;;;;15.43;9.10;;;;;;;;;;4987968;28;25081;-76
2023/05/04 01:12:25;;;;;;;12.90;8.77;;;;;;;;;;4981412;28;25060;-76
2023/05/04 01:14:52;;;;;;;18.35;9.38;;;;;;;;;;4980908;28;25076;-75
2023/05/04 01:17:19;;;;;;;19.95;10.32;;;;;;;;;;4979234;28;25052;-73
2023/05/04 01:19:45;;;;;;;15.20;8.80;;;;;;;;;;4992112;28;25079;-77
2023/05/04 01:22:11;;;;;;;17.40;9.68;;;;;;;;;;4985329;28;25056;-78
2023/05/04 01:24:43;;;;;;;14.68;9.65;;;;;;;;;;4980892;28;25128;-74
2023/05/04 01:27:11;;;;;;;14.48;8.57;;;;;;;;;;4974712;28;25159;-75
2023/05/04 01:29:42;;;;;;;15.25;9.50;;;;;;;;;;4980622;28;25055;-76
2023/05/04 01:32:08;;;;;;;20.05;10.48;;;;;;;;;;4976776;28;25069;-75
2023/05/04 01:34:35;;;;;;;16.65;9.43;;;;;;;;;;4980967;28;25094;-74
2023/05/04 01:37:02;;;;;;;17.63;9.88;;;;;;;;;;4967481;28;25066;-74
2023/05/04 01:39:34;;;;;;;16.20;9.25;;;;;;;;;;4978544;28;25076;-74
2023/05/04 01:42:01;;;;;;;21.83;9.93;;;;;;;;;;4966982;28;25163;-75
2023/05/04 01:44:26;;;;;;;17.30;8.82;;;;;;;;;;4972353;28;25053;-74
2023/05/04 01:46:52;;;;;;;15.60;9.48;;;;;;;;;;4970262;28;25049;-76
2023/05/04 01:49:18;;;;;;;17.80;9.43;;;;;;;;;;4976201;28;25061;-76
2023/05/04 01:51:45;;;;;;;21.05;10.32;;;;;;;;;;4988799;28;25069;-75
2023/05/04 01:54:11;;;;;;;18.90;10.15;;;;;;;;;;4974149;28;25144;-77
2023/05/04 01:56:38;;;;;;;15.68;9.38;;;;;;;;;;4974948;28;25128;-75
2023/05/04 01:59:04;;;;;;;18.15;9.90;;;;;;;;;;4975447;28;25052;-77
2023/05/04 02:01:30;;;;;;;18.40;9.52;;;;;;;;;;4978425;28;25051;-73
2023/05/04 02:03:56;;;;;;;16.90;9.68;;;;;;;;;;4980545;28;25074;-74
2023/05/04 02:06:22;;;;;;;15.38;10.10;;;;;;;;;;4972408;28;25088;-74
2023/05/04 02:08:47;;;;;;;19.77;10.90;;;;;;;;;;4980864;28;25066;-73
2023/05/04 02:11:15;;;;;;;20.05;9.93;;;;;;;;;;4983289;28;25080;-74
2023/05/04 02:13:41;;;;;;;16.88;10.40;;;;;;;;;;4977093;28;25071;-73
2023/05/04 02:16:07;;;;;;;13.95;9.40;;;;;;;;;;4972117;28;25057;-74
2023/05/04 02:18:33;;;;;;;16.92;9.63;;;;;;;;;;4984475;28;25160;-72
2023/05/04 02:20:59;;;;;;;24.50;10.63;;;;;;;;;;4974524;28;25082;-74
2023/05/04 02:23:25;;;;;;;19.85;9.50;;;;;;;;;;4969280;28;25068;-74
2023/05/04 02:25:51;;;;;;;16.67;10.73;;;;;;;;;;4977349;28;25072;-74
2023/05/04 02:28:17;;;;;;;16.63;9.65;;;;;;;;;;4978161;28;25066;-74
2023/05/04 02:30:43;;;;;;;18.20;10.02;;;;;;;;;;4972888;28;25063;-75
2023/05/04 02:33:10;;;;;;;17.98;9.55;;;;;;;;;;4975018;28;25059;-76
2023/05/04 02:35:36;;;;;;;16.08;10.23;;;;;;;;;;4977391;28;25075;-75
2023/05/04 02:38:01;;;;;;;15.63;9.50;;;;;;;;;;4977945;28;25075;-76
2023/05/04 02:40:27;;;;;;;16.83;9.13;;;;;;;;;;4975169;28;25160;-76
2023/05/04 02:42:54;;;;;;;14.15;8.98;;;;;;;;;;4984471;28;25072;-75
2023/05/04 02:45:26;;;;;;;13.82;9.55;;;;;;;;;;4986757;28;25070;-75
2023/05/04 02:48:17;;;;;;;13.52;9.65;;;;;;;;;;4977012;28;25070;-72
2023/05/04 02:50:45;;;;;;;16.83;10.38;;;;;;;;;;4989359;28;25116;-70
2023/05/04 02:53:11;;;;;;;19.13;10.95;;;;;;;;;;4977211;28;25049;-72
2023/05/04 02:55:37;;;;;;;19.25;10.82;;;;;;;;;;4990968;28;25072;-74
2023/05/04 02:58:03;;;;;;;16.73;10.05;;;;;;;;;;4983330;28;25056;-74
2023/05/04 03:00:29;;;;;;;13.18;9.27;;;;;;;;;;4988747;28;25096;-75
2023/05/04 03:02:55;;;;;;;15.18;9.25;;;;;;;;;;4986443;28;25087;-73
2023/05/04 03:05:21;;;;;;;16.75;9.95;;;;;;;;;;4984223;28;25046;-73
2023/05/04 03:07:47;;;;;;;21.23;10.18;;;;;;;;;;4980252;28;25065;-73
2023/05/04 03:10:13;;;;;;;16.77;9.70;;;;;;;;;;4974796;28;25044;-74
2023/05/04 03:12:39;;;;;;;18.88;11.07;;;;;;;;;;4995788;28;25075;-73
2023/05/04 03:15:06;;;;;;;18.38;10.25;;;;;;;;;;4970122;28;25057;-74
2023/05/04 03:17:32;;;;;;;17.75;9.48;;;;;;;;;;4970215;28;25109;-74
2023/05/04 03:19:58;;;;;;;21.45;10.65;;;;;;;;;;4975867;28;25053;-74
2023/05/04 03:22:24;;;;;;;16.75;9.98;;;;;;;;;;4985994;28;25134;-75
2023/05/04 03:24:50;;;;;;;15.25;10.10;;;;;;;;;;4979934;28;25116;-74
2023/05/04 03:27:16;;;;;;;17.45;10.10;;;;;;;;;;4970780;28;25066;-74
2023/05/04 03:29:42;;;;;;;16.00;10.23;;;;;;;;;;4975756;28;25063;-73
2023/05/04 03:32:08;;;;;;;19.98;10.10;;;;;;;;;;4976801;28;25058;-77
2023/05/04 03:34:34;;;;;;;19.85;10.85;;;;;;;;;;4986310;28;25066;-72
2023/05/04 03:37:00;;;;;;;25.52;11.55;;;;;;;;;;4978697;28;25113;-74
2023/05/04 03:39:26;;;;;;;16.85;10.50;;;;;;;;;;4983266;28;25065;-74
2023/05/04 03:41:52;;;;;;;16.48;10.05;;;;;;;;;;4979308;28;25079;-73
2023/05/04 03:44:18;;;;;;;19.05;10.63;;;;;;;;;;4974740;28;25114;-74
2023/05/04 03:46:44;;;;;;;20.45;10.95;;;;;;;;;;4972136;28;25097;-74
2023/05/04 03:49:10;;;;;;;19.02;10.70;;;;;;;;;;4973733;28;25118;-74
2023/05/04 03:51:36;;;;;;;15.45;10.10;;;;;;;;;;5003734;28;25165;-73
2023/05/04 03:54:02;;;;;;;18.02;10.05;;;;;;;;;;4981736;28;25075;-75
2023/05/04 03:56:28;;;;;;;19.65;10.45;;;;;;;;;;4978482;28;25071;-73
2023/05/04 03:58:54;;;;;;;18.98;9.95;;;;;;;;;;4983733;28;25064;-73
2023/05/04 04:01:20;;;;;;;17.90;10.15;;;;;;;;;;4982927;28;25061;-74
2023/05/04 04:03:46;;;;;;;14.02;9.32;;;;;;;;;;4986594;28;25071;-74
2023/05/04 04:06:12;;;;;;;16.40;9.93;;;;;;;;;;4981110;28;25085;-74
2023/05/04 04:08:38;;;;;;;21.55;10.68;;;;;;;;;;4977541;28;25063;-75
2023/05/04 04:11:04;;;;;;;16.85;10.35;;;;;;;;;;4974540;28;25062;-74
2023/05/04 04:13:30;;;;;;;16.73;10.48;;;;;;;;;;4979628;28;25077;-75
2023/05/04 04:15:56;;;;;;;18.42;11.07;;;;;;;;;;4972774;28;25070;-73
2023/05/04 04:18:23;;;;;;;22.67;9.68;;;;;;;;;;4976766;28;25123;-74
2023/05/04 04:20:49;;;;;;;18.02;9.93;;;;;;;;;;4978739;28;25083;-73
2023/05/04 04:23:18;;;;;;;21.27;11.10;;;;;;;;;;4972012;28;25079;-75
2023/05/04 04:25:44;;;;;;;20.95;10.18;;;;;;;;;;4976696;28;25088;-72
2023/05/04 04:28:11;;;;;;;20.13;10.77;;;;;;;;;;4972096;28;25071;-74
2023/05/04 04:30:37;;;;;;;18.58;9.70;;;;;;;;;;4968208;28;25063;-73
2023/05/04 04:33:03;;;;;;;17.90;10.45;;;;;;;;;;4977319;28;25065;-74
2023/05/04 04:35:31;;;;;;;18.50;9.93;;;;;;;;;;4977070;28;25067;-74
2023/05/04 04:37:57;;;;;;;20.40;10.57;;;;;;;;;;4980052;28;25079;-73
2023/05/04 04:40:23;;;;;;;18.30;10.70;;;;;;;;;;4972007;28;25080;-73
2023/05/04 04:42:49;;;;;;;20.92;11.15;;;;;;;;;;4979342;28;25058;-74
2023/05/04 04:45:15;;;;;;;20.63;10.25;;;;;;;;;;4977469;28;25074;-72
2023/05/04 04:47:41;;;;;;;19.63;9.52;;;;;;;;;;4974016;28;25114;-74
2023/05/04 04:50:07;;;;;;;15.60;9.13;;;;;;;;;;4976938;28;25147;-73
2023/05/04 04:52:33;;;;;;;18.42;9.55;;;;;;;;;;4977660;28;25067;-72
2023/05/04 04:55:00;;;;;;;15.90;9.48;;;;;;;;;;4975171;28;25141;-74
2023/05/04 04:57:26;;;;;;;20.60;9.85;;;;;;;;;;4972980;28;25150;-76
2023/05/04 04:59:52;;;;;;;20.52;10.50;;;;;;;;;;4972572;28;25060;-76
2023/05/04 05:02:21;;;;;;;16.73;9.38;;;;;;;;;;4987474;23;25053;-61
2023/05/04 05:04:47;;;;;;;15.80;9.00;;;;;;;;;;4988660;28;25077;-63
2023/05/04 05:07:14;;;;;;;31.80;9.90;;;;;;;;;;4966018;28;25098;-61
2023/05/04 05:09:41;;;;;;;15.93;9.85;;;;;;;;;;4965777;28;25076;-62
2023/05/04 05:12:07;;;;;;;18.88;9.85;;;;;;;;;;4962777;28;25066;-60
2023/05/04 05:14:33;;;;;;;22.77;9.77;;;;;;;;;;4963571;28;25099;-61
2023/05/04 05:17:02;;;;;;;18.83;9.75;;;;;;;;;;4962754;28;25109;-62
2023/05/04 05:19:28;;;;;;;21.98;9.25;;;;;;;;;;4959806;28;25101;-60
2023/05/04 05:21:55;;;;;;;18.63;10.10;;;;;;;;;;4964227;28;25083;-62
2023/05/04 05:24:21;;;;;;;15.13;9.73;;;;;;;;;;4952857;28;25070;-60
2023/05/04 05:26:47;;;;;;;15.30;8.95;;;;;;;;;;4958080;28;25121;-61
2023/05/04 05:29:13;;;;;;;17.02;9.35;;;;;;;;;;4958581;28;25064;-61
2023/05/04 05:31:40;;;;;;;14.18;9.77;;;;;;;;;;4962824;28;25077;-60
2023/05/04 05:34:06;;;;;;;16.10;9.10;;;;;;;;;;4964616;28;25138;-60
2023/05/04 05:36:32;;;;;;;19.38;9.50;;;;;;;;;;4962584;28;25156;-61
2023/05/04 05:38:58;;;;;;;15.65;9.23;;;;;;;;;;4959522;28;25080;-62
2023/05/04 05:41:24;;;;;;;20.02;9.50;;;;;;;;;;4970067;28;25144;-62
2023/05/04 05:43:50;;;;;;;19.15;9.15;;;;;;;;;;4955390;28;25156;-61
2023/05/04 05:46:17;;;;;;;16.65;10.02;;;;;;;;;;4960997;28;25087;-61
2023/05/04 05:48:43;;;;;;;17.33;8.98;;;;;;;;;;4963838;28;25117;-59
2023/05/04 05:51:09;;;;;;;14.60;7.88;;;;;;;;;;4966893;28;25066;-61
2023/05/04 05:53:35;;;;;;;18.40;9.15;;;;;;;;;;4961059;28;25073;-61
2023/05/04 05:56:01;;;;;;;18.55;8.23;;;;;;;;;;4965659;28;25080;-60
2023/05/04 05:58:27;;;;;;;15.23;8.18;;;;;;;;;;4973314;28;25061;-61
2023/05/04 06:00:53;;;;;;;17.95;9.35;;;;;;;;;;4963962;28;25070;-62
2023/05/04 06:03:19;;;;;;;16.23;9.18;;;;;;;;;;4958463;28;25132;-62
2023/05/04 06:05:45;;;;;;;19.80;10.02;;;;;;;;;;4975586;28;25052;-61
2023/05/04 06:08:11;;;;;;;14.48;9.60;;;;;;;;;;4963610;28;25049;-61
2023/05/04 06:10:37;;;;;;;15.48;8.82;;;;;;;;;;4967949;28;25108;-60
2023/05/04 06:13:03;;;;;;;18.10;9.00;;;;;;;;;;4963022;28;25091;-61
2023/05/04 06:15:29;;;;;;;12.85;8.88;;;;;;;;;;4957175;28;25090;-61
2023/05/04 06:17:55;;;;;;;17.13;8.30;;;;;;;;;;4964165;28;25053;-62
2023/05/04 06:20:21;;;;;;;20.17;9.50;;;;;;;;;;4962990;28;25074;-60
2023/05/04 06:22:47;;;;;;;12.93;8.82;;;;;;;;;;4971624;28;25074;-61
2023/05/04 06:25:13;;;;;;;17.33;9.50;;;;;;;;;;4962173;28;25070;-61
2023/05/04 06:27:39;;;;;;;17.23;9.23;;;;;;;;;;4962744;28;25077;-61
2023/05/04 06:30:06;;;;;;;13.30;8.93;;;;;;;;;;4959222;28;25146;-61
2023/05/04 06:32:33;;;;;;;13.90;7.95;;;;;;;;;;4964875;28;25117;-62
2023/05/04 06:34:58;;;;;;;18.80;8.40;;;;;;;;;;4969168;28;25065;-62
2023/05/04 06:37:25;;;;;;;17.63;8.60;;;;;;;;;;4966704;28;25135;-61
2023/05/04 06:39:51;;;;;;;14.85;7.95;;;;;;;;;;4962077;28;25078;-61
2023/05/04 06:42:17;;;;;;;13.13;8.45;;;;;;;;;;4967672;28;25101;-63
2023/05/04 06:44:43;;;;;;;12.95;8.13;;;;;;;;;;4966755;28;25081;-60
2023/05/04 06:47:09;;;;;;;14.90;8.00;;;;;;;;;;4964143;28;25065;-62
2023/05/04 06:49:35;;;;;;;12.10;8.20;;;;;;;;;;4962459;28;25068;-60
2023/05/04 06:52:01;;;;;;;19.60;8.85;;;;;;;;;;4963312;28;25102;-62
2023/05/04 06:54:27;;;;;;;17.67;8.60;;;;;;;;;;4959316;28;25136;-60
2023/05/04 06:56:53;;;;;;;12.38;7.93;;;;;;;;;;4972461;28;25068;-62
2023/05/04 06:59:20;;;;;;;17.15;8.75;;;;;;;;;;4952570;28;25066;-62
2023/05/04 07:01:46;;;;;;;16.10;8.05;;;;;;;;;;4963136;28;25083;-61
2023/05/04 07:04:15;;;;;;;21.40;9.48;;;;;;;;;;4961367;28;25157;-61
2023/05/04 07:06:42;;;;;;;20.13;8.90;;;;;;;;;;4962864;28;25116;-62
2023/05/04 07:09:07;;;;;;;16.73;8.30;;;;;;;;;;4963372;28;25099;-61
2023/05/04 07:11:33;;;;;;;13.50;8.20;;;;;;;;;;4967424;28;25096;-61
2023/05/04 07:13:59;;;;;;;14.18;7.70;;;;;;;;;;4964138;28;25074;-62
2023/05/04 07:16:25;;;;;;;11.93;7.63;;;;;;;;;;4967122;28;25127;-61
2023/05/04 07:18:51;;;;;;;15.55;7.28;;;;;;;;;;4966587;28;25054;-60
2023/05/04 07:21:17;;;;;;;13.57;7.70;;;;;;;;;;4963028;28;24941;-62
2023/05/04 07:23:43;;;;;;;14.27;7.40;;;;;;;;;;4981052;28;25071;-61
2023/05/04 07:26:09;;;;;;;12.35;7.45;;;;;;;;;;4967231;28;25076;-61
2023/05/04 07:28:35;;;;;;;10.35;6.78;;;;;;;;;;4967433;28;25142;-61
2023/05/04 07:31:02;;;;;;;15.98;7.25;;;;;;;;;;4976978;28;25075;-62
2023/05/04 07:33:28;;;;;;;15.13;8.05;;;;;;;;;;4967997;28;25065;-61
2023/05/04 07:35:58;;;;;;;12.48;7.40;;;;;;;;;;4969014;28;25056;-61
2023/05/04 07:38:25;;;;;;;22.00;8.27;;;;;;;;;;4982243;28;25151;-61
2023/05/04 07:40:52;;;;;;;13.80;7.32;;;;;;;;;;4973984;28;25063;-61
2023/05/04 07:43:18;;;;;;;14.38;7.93;;;;;;;;;;4977998;28;25075;-62
2023/05/04 07:45:44;;;;;;;14.10;7.45;;;;;;;;;;4968636;28;25065;-61
2023/05/04 07:48:10;;;;;;;13.57;6.97;;;;;;;;;;4967392;28;25061;-61
2023/05/04 07:50:36;;;;;;;15.43;8.10;;;;;;;;;;4970262;28;25066;-61
2023/05/04 07:53:02;;;;;;;16.23;6.90;;;;;;;;;;4961678;28;25068;-61
2023/05/04 07:55:29;;;;;;;17.63;8.50;;;;;;;;;;4966141;28;25066;-61
2023/05/04 07:57:55;;;;;;;11.07;7.88;;;;;;;;;;4964311;28;25049;-60
2023/05/04 08:00:21;;;;;;;13.80;7.63;;;;;;;;;;4974171;28;25141;-62
2023/05/04 08:02:47;;;;;;;12.32;7.88;;;;;;;;;;4967426;28;25152;-61
2023/05/04 08:05:13;;;;;;;15.77;7.63;;;;;;;;;;4960927;28;25066;-63
2023/05/04 08:07:39;;;;;;;16.70;7.53;;;;;;;;;;4970192;28;25072;-62
2023/05/04 08:10:05;;;;;;;16.25;7.55;;;;;;;;;;4966891;28;25102;-62
2023/05/04 08:12:31;;;;;;;12.57;7.93;;;;;;;;;;4966518;28;25056;-61
2023/05/04 08:14:58;;;;;;;15.35;7.50;;;;;;;;;;4972058;28;25085;-61
2023/05/04 08:17:23;;;;;;;13.07;7.75;;;;;;;;;;4961299;28;25118;-60
2023/05/04 08:19:49;;;;;;;13.52;7.75;;;;;;;;;;4966473;28;25061;-62
2023/05/04 08:22:15;;;;;;;11.85;7.15;;;;;;;;;;4964990;28;25098;-61
2023/05/04 08:24:41;;;;;;;13.80;7.55;;;;;;;;;;4959630;28;25063;-60
2023/05/04 08:27:07;;;;;;;11.77;7.15;;;;;;;;;;4960599;28;25127;-63
2023/05/04 08:29:35;;;;;;;11.85;7.30;;;;;;;;;;4975184;28;25131;-61
2023/05/04 08:32:01;;;;;;;14.20;7.20;;;;;;;;;;4966488;28;25062;-63
2023/05/04 08:34:27;;;;;;;15.27;6.63;;;;;;;;;;4961369;28;25134;-61
2023/05/04 08:36:53;;;;;;;13.77;7.50;;;;;;;;;;4959911;28;25149;-61
2023/05/04 08:39:19;;;;;;;11.65;7.80;;;;;;;;;;4962189;28;25076;-62
2023/05/04 08:41:45;;;;;;;15.10;7.45;;;;;;;;;;4965206;28;25115;-62
2023/05/04 08:44:11;;;;;;;14.48;7.22;;;;;;;;;;4959416;28;25085;-60
2023/05/04 08:46:39;;;;;;;12.13;6.90;;;;;;;;;;4961014;28;25047;-61
2023/05/04 08:49:05;;;;;;;13.85;7.32;;;;;;;;;;4970246;28;25126;-61
2023/05/04 08:51:34;;;;;;;14.27;8.40;;;;;;;;;;4976801;28;25082;-61
2023/05/04 08:54:00;;;;;;;13.43;6.60;;;;;;;;;;4974829;28;25065;-61
2023/05/04 08:56:26;;;;;;;12.63;7.25;;;;;;;;;;4965242;28;25144;-61
2023/05/04 08:58:56;;;;;;;12.02;8.02;;;;;;;;;;4960845;28;25069;-61
2023/05/04 09:01:22;;;;;;;16.35;7.30;;;;;;;;;;4965479;28;25134;-61
2023/05/04 09:03:50;;;;;;;10.48;6.82;;;;;;;;;;4959791;28;25104;-61
2023/05/04 09:06:17;;;;;;;15.32;6.85;;;;;;;;;;4962860;28;25115;-60
2023/05/04 09:08:43;;;;;;;16.73;7.43;;;;;;;;;;4964241;28;25084;-60
2023/05/04 09:11:09;;;;;;;19.73;8.90;;;;;;;;;;4965751;28;25078;-60
2023/05/04 09:13:35;;;;;;;11.75;7.05;;;;;;;;;;4962042;28;25084;-61
2023/05/04 09:16:02;;;;;;;15.57;6.82;;;;;;;;;;4962295;28;25067;-61
2023/05/04 09:18:36;;;;;;;11.40;7.53;;;;;;;;;;4963852;28;25116;-61
2023/05/04 09:21:02;;;;;;;11.65;7.32;;;;;;;;;;4960950;28;25057;-61
2023/05/04 09:23:28;;;;;;;9.07;6.22;;;;;;;;;;4960497;28;25093;-61
2023/05/04 09:25:55;;;;;;;15.60;7.10;;;;;;;;;;4973774;28;25071;-61
2023/05/04 09:28:21;;;;;;;11.90;6.68;;;;;;;;;;4960589;28;25144;-61
2023/05/04 09:30:47;;;;;;;11.90;7.05;;;;;;;;;;4966164;28;25057;-60
2023/05/04 09:33:15;;;;;;;12.60;7.00;;;;;;;;;;4963541;28;25098;-61
2023/05/04 09:35:43;;;;;;;12.60;7.28;;;;;;;;;;4972093;28;25078;-61
2023/05/04 09:38:09;;;;;;;12.38;8.48;;;;;;;;;;4960138;28;25065;-60
2023/05/04 09:40:39;;;;;;;11.32;7.45;;;;;;;;;;4965294;28;25059;-61
2023/05/04 09:43:06;;;;;;;14.98;7.68;;;;;;;;;;4962203;28;25154;-59
2023/05/04 09:45:39;;;;;;;11.55;6.63;;;;;;;;;;4961238;28;25066;-61
2023/05/04 09:48:25;;;;;;;14.23;7.70;;;;;;;;;;4960934;28;25177;-60
2023/05/04 09:50:52;;;;;;;11.18;7.57;;;;;;;;;;4965384;28;25073;-61
2023/05/04 09:53:25;;;;;;;13.30;7.88;;;;;;;;;;4959809;28;25050;-61
2023/05/04 09:56:00;;;;;;;11.18;7.47;;;;;;;;;;4962579;28;25133;-61
2023/05/04 09:58:27;;;;;;;19.15;7.05;;;;;;;;;;4964035;28;25173;-61
2023/05/04 10:00:53;;;;;;;12.18;6.85;;;;;;;;;;4969216;28;25099;-61
2023/05/04 10:03:22;;;;;;;14.10;7.05;;;;;;;;;;4971457;28;25113;-64
2023/05/04 10:05:48;;;;;;;10.85;7.60;;;;;;;;;;4968308;28;24787;-60
2023/05/04 10:08:16;;;;;;;18.02;7.88;;;;;;;;;;4970818;28;25070;-60
2023/05/04 10:10:43;;;;;;;18.73;7.00;;;;;;;;;;4965791;28;25048;-60
2023/05/04 10:13:09;;;;;;;15.38;7.65;;;;;;;;;;4970683;28;25073;-61
2023/05/04 10:15:36;;;;;;;15.65;6.93;;;;;;;;;;4973911;28;25079;-60
2023/05/04 10:18:05;;;;;;;11.07;7.05;;;;;;;;;;4967770;28;25133;-59
2023/05/04 10:20:40;;;;;;;15.82;7.40;;;;;;;;;;4963813;28;25265;-61
2023/05/04 10:23:17;;;;;;;15.70;7.70;;;;;;;;;;4960238;28;25138;-61
2023/05/04 10:26:02;;;;;;;15.18;7.78;;;;;;;;;;4966857;28;25076;-62
2023/05/04 10:28:31;;;;;;;17.27;7.40;;;;;;;;;;4963833;28;25076;-61
2023/05/04 10:30:58;;;;;;;12.73;7.93;;;;;;;;;;4972947;28;25092;-61
2023/05/04 10:33:36;;;;;;;13.55;7.93;;;;;;;;;;4977491;28;25051;-61
2023/05/04 10:36:03;;;;;;;13.98;7.45;;;;;;;;;;4964336;28;25064;-60
2023/05/04 10:38:32;;;;;;;16.08;7.38;;;;;;;;;;4965560;28;25062;-61
2023/05/04 10:40:58;;;;;;;13.35;8.05;;;;;;;;;;4965292;28;25149;-61
2023/05/04 10:43:24;;;;;;;11.57;7.53;;;;;;;;;;4960111;28;25064;-61
2023/05/04 10:45:50;;;;;;;12.18;7.60;;;;;;;;;;4966581;28;25154;-61
2023/05/04 10:48:16;;;;;;;12.10;6.80;;;;;;;;;;4961570;28;25125;-60
2023/05/04 10:50:42;;;;;;;14.75;8.25;;;;;;;;;;4965815;28;25060;-62
2023/05/04 10:53:08;;;;;;;13.68;7.50;;;;;;;;;;4964573;28;25056;-61
2023/05/04 10:55:41;;;;;;;13.40;7.20;;;;;;;;;;4958989;28;25112;-61
2023/05/04 10:58:09;;;;;;;10.65;7.15;;;;;;;;;;4965383;28;25146;-62
2023/05/04 11:00:39;;;;;;;15.00;7.22;;;;;;;;;;4965336;28;25065;-61
2023/05/04 11:03:10;;;;;;;16.35;7.10;;;;;;;;;;4959226;28;25071;-61
2023/05/04 11:05:43;;;;;;;12.20;7.15;;;;;;;;;;4965786;28;25076;-62
2023/05/04 11:08:19;;;;;;;16.70;6.40;;;;;;;;;;4960292;28;25068;-60
2023/05/04 11:10:49;;;;;;;11.63;7.20;;;;;;;;;;4966960;28;25069;-63
2023/05/04 11:13:15;;;;;;;13.77;7.45;;;;;;;;;;4979540;28;25071;-60
2023/05/04 11:15:45;;;;;;;15.80;7.28;;;;;;;;;;4973721;28;25146;-62
2023/05/04 11:18:11;;;;;;;9.52;7.20;;;;;;;;;;4966243;28;25149;-62
2023/05/04 11:20:37;;;;;;;11.13;7.50;;;;;;;;;;4968284;28;25061;-61
2023/05/04 11:23:06;;;;;;;9.75;7.10;;;;;;;;;;4985975;28;25077;-62
2023/05/04 11:25:34;;;;;;;11.68;7.68;;;;;;;;;;4972850;28;25086;-61
2023/05/04 11:28:01;;;;;;;19.90;7.63;;;;;;;;;;4965449;28;25098;-61
2023/05/04 11:30:31;;;;;;;13.77;7.93;;;;;;;;;;4964264;28;25063;-61
2023/05/04 11:32:59;;;;;;;13.27;7.57;;;;;;;;;;4965036;28;25103;-60
2023/05/04 11:35:25;;;;;;;11.85;7.63;;;;;;;;;;4967108;28;25067;-61
2023/05/04 11:37:51;;;;;;;18.98;7.47;;;;;;;;;;4958957;28;25132;-61
2023/05/04 11:40:18;;;;;;;11.07;7.38;;;;;;;;;;4972176;28;25073;-61
2023/05/04 11:42:44;;;;;;;14.98;8.50;;;;;;;;;;4971223;28;25043;-60
2023/05/04 11:45:11;;;;;;;13.63;8.35;;;;;;;;;;4969969;28;25109;-61
2023/05/04 11:47:37;;;;;;;15.95;8.02;;;;;;;;;;4964404;28;25093;-62
2023/05/04 11:50:04;;;;;;;15.75;7.78;;;;;;;;;;4960840;28;25068;-62
2023/05/04 11:52:32;;;;;;;17.20;7.28;;;;;;;;;;4970532;28;25050;-60
2023/05/04 11:54:58;;;;;;;13.20;8.45;;;;;;;;;;4965283;28;25070;-60
2023/05/04 11:57:24;;;;;;;15.15;8.15;;;;;;;;;;4975586;28;25092;-61
2023/05/04 11:59:50;;;;;;;13.15;8.00;;;;;;;;;;4970166;28;25071;-61
2023/05/04 12:02:16;;;;;;;13.45;8.60;;;;;;;;;;4974820;28;25111;-61
2023/05/04 12:04:42;;;;;;;10.43;7.85;;;;;;;;;;4967573;28;25059;-61
2023/05/04 12:07:08;;;;;;;28.15;8.27;;;;;;;;;;4965961;28;25072;-61
2023/05/04 12:09:47;;;;;;;17.48;10.38;;;;;;;;;;4973859;28;25060;-62
2023/05/04 12:12:15;;;;;;;15.10;8.88;;;;;;;;;;4965510;28;25064;-61
2023/05/04 12:14:50;;;;;;;14.95;9.15;;;;;;;;;;4965289;28;25104;-62
2023/05/04 12:17:18;;;;;;;12.68;8.23;;;;;;;;;;4967246;28;25049;-61
2023/05/04 12:19:50;;;;;;;12.52;8.57;;;;;;;;;;4968814;28;25119;-63
2023/05/04 12:22:16;;;;;;;13.38;8.38;;;;;;;;;;4963803;28;25166;-61
2023/05/04 12:24:42;;;;;;;13.63;8.07;;;;;;;;;;4967087;28;25078;-62
2023/05/04 12:27:12;;;;;;;15.20;7.97;;;;;;;;;;4968884;28;25067;-61
2023/05/04 12:29:38;;;;;;;16.33;8.85;;;;;;;;;;4976943;28;25065;-63
2023/05/04 12:32:04;;;;;;;15.38;9.25;;;;;;;;;;4961318;28;25060;-60
2023/05/04 12:34:31;;;;;;;17.92;9.60;;;;;;;;;;4971515;28;25048;-64
2023/05/04 12:36:58;;;;;;;14.48;8.45;;;;;;;;;;4966918;28;25090;-62
2023/05/04 12:39:24;;;;;;;18.50;9.93;;;;;;;;;;4965615;28;25160;-60
2023/05/04 12:41:50;;;;;;;19.50;9.15;;;;;;;;;;4968846;28;25067;-62
2023/05/04 12:44:17;;;;;;;15.27;8.73;;;;;;;;;;4964670;28;25082;-61
2023/05/04 12:46:43;;;;;;;19.38;9.48;;;;;;;;;;4971636;28;25072;-60
2023/05/04 12:49:10;;;;;;;18.60;8.57;;;;;;;;;;4974613;28;25063;-63
2023/05/04 12:51:36;;;;;;;15.35;9.07;;;;;;;;;;4964873;28;25100;-61
2023/05/04 12:54:02;;;;;;;14.88;7.70;;;;;;;;;;4973587;28;25095;-62
2023/05/04 12:56:28;;;;;;;16.17;8.48;;;;;;;;;;4969862;28;25060;-62
2023/05/04 12:58:55;;;;;;;12.43;7.05;;;;;;;;;;4967322;28;25134;-62
2023/05/04 13:01:21;;;;;;;10.13;5.80;;;;;;;;;;4975619;28;25164;-61
2023/05/04 13:03:47;;;;;;;10.45;5.80;;;;;;;;;;4966079;28;25157;-63
2023/05/04 13:06:13;;;;;;;10.35;5.35;;;;;;;;;;4968300;28;25077;-60
2023/05/04 13:08:39;;;;;;;8.10;4.95;;;;;;;;;;4966683;28;25108;-61
2023/05/04 13:11:05;;;;;;;9.43;5.55;;;;;;;;;;4967108;28;25071;-61
2023/05/04 13:13:31;;;;;;;8.02;5.78;;;;;;;;;;4965359;28;25042;-61
2023/05/04 13:15:57;;;;;;;10.25;5.93;;;;;;;;;;4967341;28;25069;-62
2023/05/04 13:18:25;;;;;;;9.18;5.55;;;;;;;;;;4963240;28;25139;-62
2023/05/04 13:20:52;;;;;;;10.98;5.22;;;;;;;;;;4963266;28;25134;-61
2023/05/04 13:23:20;;;;;;;10.35;5.68;;;;;;;;;;4964055;28;25119;-61
2023/05/04 13:25:46;;;;;;;11.85;6.07;;;;;;;;;;4966060;28;25065;-60
2023/05/04 13:28:12;;;;;;;7.50;5.60;;;;;;;;;;4962026;28;25096;-62
2023/05/04 13:30:38;;;;;;;13.32;6.95;;;;;;;;;;4965685;28;25073;-62
2023/05/04 13:33:04;;;;;;;10.05;6.40;;;;;;;;;;4963336;28;25125;-60
2023/05/04 13:35:30;;;;;;;10.48;5.68;;;;;;;;;;4973008;28;25174;-61
2023/05/04 13:37:56;;;;;;;10.07;5.43;;;;;;;;;;4970686;28;25091;-61
2023/05/04 13:40:22;;;;;;;10.18;6.35;;;;;;;;;;4965722;28;25198;-60
2023/05/04 13:42:48;;;;;;;22.55;6.57;;;;;;;;;;4962146;28;25092;-63
2023/05/04 13:45:14;;;;;;;9.32;5.47;;;;;;;;;;4968609;28;25089;-62
2023/05/04 13:47:40;;;;;;;8.88;5.85;;;;;;;;;;4967242;28;25058;-63
2023/05/04 13:50:07;;;;;;;14.25;6.85;;;;;;;;;;4966927;28;25095;-61
2023/05/04 13:52:33;;;;;;;8.65;6.28;;;;;;;;;;4956940;28;25135;-61
2023/05/04 13:54:59;;;;;;;12.25;5.75;;;;;;;;;;4967435;28;25134;-61
2023/05/04 13:57:29;;;;;;;12.02;5.85;;;;;;;;;;4964686;28;25164;-61
2023/05/04 13:59:55;;;;;;;10.13;5.47;;;;;;;;;;4957810;28;25071;-61
2023/05/04 14:02:22;;;;;;;13.27;7.03;;;;;;;;;;4963603;28;25053;-61
2023/05/04 14:04:51;;;;;;;6.55;4.72;;;;;;;;;;4958053;28;25098;-62
2023/05/04 14:07:17;;;;;;;9.85;5.25;;;;;;;;;;4963747;28;25103;-61
2023/05/04 14:09:43;;;;;;;15.85;6.78;;;;;;;;;;4965052;28;25081;-62
2023/05/04 14:12:09;;;;;;;11.98;5.68;;;;;;;;;;4971112;28;25049;-61
2023/05/04 14:14:35;;;;;;;9.23;4.55;;;;;;;;;;4976207;28;25113;-61
2023/05/04 14:17:01;;;;;;;9.98;5.00;;;;;;;;;;4963809;28;25102;-61
2023/05/04 14:19:27;;;;;;;8.57;6.35;;;;;;;;;;4964028;28;25070;-61
2023/05/04 14:21:53;;;;;;;8.85;5.30;;;;;;;;;;4964734;28;25080;-61
2023/05/04 14:24:20;;;;;;;10.20;5.22;;;;;;;;;;4973902;28;25057;-61
2023/05/04 14:26:46;;;;;;;7.93;5.15;;;;;;;;;;4962215;28;25106;-61
2023/05/04 14:29:12;;;;;;;11.98;5.90;;;;;;;;;;4967234;28;25107;-61